Time;durP1;ratioP1;P1;durP2;ratioP2;P2;SDS_P1;SDS_P2;PMS_P1;PMS_P2;Temp;Humidity;BMP_temperature;BMP_pressure;BME280_temperature;BME280_humidity;BME280_pressure;Samples;Min_cycle;Max_cycle;Signal;HPM_P1;HPM_P2
2021/11/25 00:00:08;;;;;;;;;;;0.20;99.90;;;;;;5087602;28;19908;-75
2021/11/25 00:02:34;;;;;;;;;;;0.30;99.90;;;;;;5056709;28;19958;-73
2021/11/25 00:04:59;;;;;;;;;;;0.30;99.90;;;;;;5053992;28;20398;-73
2021/11/25 00:07:25;;;;;;;;;;;0.20;99.90;;;;;;5053866;28;19935;-75
2021/11/25 00:09:51;;;;;;;;;;;0.20;99.90;;;;;;5053319;28;19917;-73
2021/11/25 00:12:16;;;;;;;;;;;0.30;99.90;;;;;;5054310;28;20269;-73
2021/11/25 00:14:42;;;;;;;;;;;0.20;99.90;;;;;;5052495;28;19909;-73
2021/11/25 00:17:08;;;;;;;;;;;0.20;99.90;;;;;;5052368;28;19974;-74
2021/11/25 00:19:33;;;;;;;;;;;0.20;99.90;;;;;;5054350;28;20416;-74
2021/11/25 00:21:59;;;;;;;;;;;0.20;99.90;;;;;;5053279;28;20416;-78
2021/11/25 00:24:24;;;;;;;;;;;0.10;99.90;;;;;;5052546;28;19935;-73
2021/11/25 00:26:50;;;;;;;;;;;0.10;99.90;;;;;;5055589;28;19916;-73
2021/11/25 00:29:15;;;;;;;;;;;0.20;99.90;;;;;;5059823;28;19915;-75
2021/11/25 00:31:41;;;;;;;;;;;0.20;99.90;;;;;;5057374;28;19976;-74
2021/11/25 00:34:06;;;;;;;;;;;0.20;99.90;;;;;;5053311;28;19909;-75
2021/11/25 00:36:32;;;;;;;;;;;0.10;99.90;;;;;;5050889;28;19916;-74
2021/11/25 00:38:57;;;;;;;;;;;0.20;99.90;;;;;;5064670;28;19931;-77
2021/11/25 00:41:23;;;;;;;;;;;0.20;99.90;;;;;;5069750;28;20416;-74
2021/11/25 00:43:48;;;;;;;;;;;0.10;99.90;;;;;;5070237;28;20403;-74
2021/11/25 00:46:14;;;;;;;;;;;0.10;99.90;;;;;;5063643;28;20050;-76
2021/11/25 00:48:39;;;;;;;;;;;0.10;99.90;;;;;;5050686;28;19947;-76
2021/11/25 00:51:05;;;;;;;;;;;0.10;99.90;;;;;;5049685;28;19962;-74
2021/11/25 00:53:30;;;;;;;;;;;0.10;99.90;;;;;;5066183;28;19909;-73
2021/11/25 00:55:56;;;;;;;;;;;0.10;99.90;;;;;;5073450;28;19909;-75
2021/11/25 00:58:22;;;;;;;;;;;0.10;99.90;;;;;;5064519;28;19916;-73
2021/11/25 01:00:47;;;;;;;;;;;0.10;99.90;;;;;;5059108;28;20209;-73
2021/11/25 01:03:13;;;;;;;;;;;0.10;99.90;;;;;;5054997;28;19947;-73
2021/11/25 01:05:39;;;;;;;;;;;0.10;99.90;;;;;;5053782;28;20011;-74
2021/11/25 01:08:05;;;;;;;;;;;0.10;99.90;;;;;;5053459;28;19909;-74
2021/11/25 01:10:31;;;;;;;;;;;0.10;99.90;;;;;;5063781;28;19962;-75
2021/11/25 01:12:56;;;;;;;;;;;0.20;99.90;;;;;;5072844;28;19959;-76
2021/11/25 01:15:34;;;;;;;;;;;0.20;99.90;;;;;;5071344;28;19955;-73
2021/11/25 01:18:07;;;;;;;;;;;0.20;99.90;;;;;;5072887;28;20373;-73
2021/11/25 01:26:45;;;;;;;;;;;0.20;99.90;;;;;;5050263;28;19931;-74
2021/11/25 01:29:11;;;;;;;;;;;0.20;99.90;;;;;;5047539;28;19913;-75
2021/11/25 01:31:40;;;;;;;;;;;0.20;99.90;;;;;;5050953;28;19920;-74
2021/11/25 01:34:06;;;;;;;;;;;0.20;99.90;;;;;;5052766;28;20326;-74
2021/11/25 01:36:31;;;;;;;;;;;0.20;99.90;;;;;;5051652;28;19999;-74
2021/11/25 01:38:57;;;;;;;;;;;0.20;99.90;;;;;;5052610;28;19908;-74
2021/11/25 01:41:23;;;;;;;;;;;0.20;99.90;;;;;;5052797;28;20380;-74
2021/11/25 01:43:48;;;;;;;;;;;0.10;99.90;;;;;;5051270;28;20010;-74
2021/11/25 01:46:15;;;;;;;;;;;0.10;99.90;;;;;;5052380;28;19913;-72
2021/11/25 01:48:42;;;;;;;;;;;0.10;99.90;;;;;;5052241;28;19915;-74
2021/11/25 01:51:07;;;;;;;;;;;0.00;99.90;;;;;;5051627;28;20284;-74
2021/11/25 01:53:33;;;;;;;;;;;0.10;99.90;;;;;;5052005;28;19915;-74
2021/11/25 01:55:59;;;;;;;;;;;0.00;99.90;;;;;;5052518;28;19909;-74
2021/11/25 01:58:24;;;;;;;;;;;0.00;99.90;;;;;;5052290;28;19909;-74
2021/11/25 02:00:52;;;;;;;;;;;0.00;99.90;;;;;;5051785;28;19909;-73
2021/11/25 02:03:17;;;;;;;;;;;-0.10;99.90;;;;;;5051047;28;20047;-74
2021/11/25 02:05:44;;;;;;;;;;;-0.10;99.90;;;;;;5052107;28;19974;-74
2021/11/25 02:08:09;;;;;;;;;;;0.00;99.90;;;;;;5052348;28;20368;-74
2021/11/25 02:10:37;;;;;;;;;;;-0.10;99.90;;;;;;5052029;28;19954;-74
2021/11/25 02:13:02;;;;;;;;;;;-0.10;99.90;;;;;;5060774;28;19909;-73
2021/11/25 02:15:34;;;;;;;;;;;-0.10;99.90;;;;;;5045426;28;20213;-74
2021/11/25 02:18:00;;;;;;;;;;;0.00;99.90;;;;;;5052124;28;19916;-74
2021/11/25 02:20:30;;;;;;;;;;;0.00;99.90;;;;;;5051777;28;19909;-74
2021/11/25 02:22:55;;;;;;;;;;;-0.10;99.90;;;;;;5051723;28;19915;-72
2021/11/25 02:25:21;;;;;;;;;;;0.00;99.90;;;;;;5051651;28;19909;-74
2021/11/25 02:27:46;;;;;;;;;;;0.00;99.90;;;;;;5051508;28;20391;-74
2021/11/25 02:30:13;;;;;;;;;;;0.00;99.90;;;;;;5051424;28;20177;-74
2021/11/25 02:32:43;;;;;;;;;;;0.00;99.90;;;;;;5051811;28;19966;-74
2021/11/25 02:35:11;;;;;;;;;;;-0.10;99.90;;;;;;5054576;28;19912;-74
2021/11/25 02:37:37;;;;;;;;;;;0.00;99.90;;;;;;5049697;28;19915;-74
2021/11/25 02:40:22;;;;;;;;;;;0.00;99.90;;;;;;5052954;28;19999;-74
2021/11/25 02:42:49;;;;;;;;;;;0.00;99.90;;;;;;5051300;28;19917;-74
2021/11/25 02:45:15;;;;;;;;;;;0.00;99.90;;;;;;5051187;28;20525;-74
2021/11/25 02:47:40;;;;;;;;;;;0.00;99.90;;;;;;5051657;28;19935;-74
2021/11/25 02:50:06;;;;;;;;;;;0.00;99.90;;;;;;5051247;28;19986;-74
2021/11/25 02:52:32;;;;;;;;;;;0.00;99.90;;;;;;5051320;28;19909;-74
2021/11/25 02:54:57;;;;;;;;;;;0.00;99.90;;;;;;5050798;28;19990;-74
2021/11/25 02:57:22;;;;;;;;;;;0.00;99.90;;;;;;5051371;28;20511;-74
2021/11/25 02:59:48;;;;;;;;;;;0.00;99.90;;;;;;5050820;28;19913;-74
2021/11/25 03:02:13;;;;;;;;;;;0.00;99.90;;;;;;5049894;28;19978;-73
2021/11/25 03:04:39;;;;;;;;;;;0.00;99.90;;;;;;5051252;28;19909;-74
2021/11/25 03:07:04;;;;;;;;;;;0.00;99.90;;;;;;5051011;28;19913;-74
2021/11/25 03:09:30;;;;;;;;;;;0.00;99.90;;;;;;5044637;28;19955;-74
2021/11/25 03:11:55;;;;;;;;;;;0.00;99.90;;;;;;5051085;28;20250;-74
2021/11/25 03:14:21;;;;;;;;;;;0.00;99.90;;;;;;5050499;28;19909;-74
2021/11/25 03:16:47;;;;;;;;;;;0.00;99.90;;;;;;5051111;28;20447;-74
2021/11/25 03:19:13;;;;;;;;;;;0.00;99.90;;;;;;5051086;28;19908;-74
2021/11/25 03:21:38;;;;;;;;;;;-0.10;99.90;;;;;;5049401;28;19921;-74
2021/11/25 03:24:04;;;;;;;;;;;0.00;99.90;;;;;;5050583;28;19931;-74
2021/11/25 03:26:30;;;;;;;;;;;-0.10;99.90;;;;;;5050756;28;20357;-74
2021/11/25 03:28:59;;;;;;;;;;;-0.10;99.90;;;;;;5049560;28;19962;-74
2021/11/25 03:31:26;;;;;;;;;;;-0.10;99.90;;;;;;5050648;28;19962;-74
2021/11/25 03:33:52;;;;;;;;;;;-0.10;99.90;;;;;;5050694;28;20289;-74
2021/11/25 03:36:18;;;;;;;;;;;0.00;99.90;;;;;;5049528;28;20004;-74
2021/11/25 03:38:43;;;;;;;;;;;0.00;99.90;;;;;;5050855;28;20002;-74
2021/11/25 03:41:10;;;;;;;;;;;0.00;99.90;;;;;;5050683;28;19996;-74
2021/11/25 03:43:35;;;;;;;;;;;0.00;99.90;;;;;;5050852;28;19962;-74
2021/11/25 03:46:01;;;;;;;;;;;-0.10;99.90;;;;;;5050716;28;20315;-74
2021/11/25 03:48:30;;;;;;;;;;;-0.10;99.90;;;;;;5049532;28;19963;-75
2021/11/25 03:50:56;;;;;;;;;;;0.00;99.90;;;;;;5050510;28;19908;-74
2021/11/25 03:53:22;;;;;;;;;;;0.00;99.90;;;;;;5050359;28;19912;-74
2021/11/25 03:55:47;;;;;;;;;;;0.00;99.90;;;;;;5051090;28;20448;-74
2021/11/25 03:58:13;;;;;;;;;;;-0.10;99.90;;;;;;5050613;28;20404;-73
2021/11/25 04:00:38;;;;;;;;;;;-0.10;99.90;;;;;;5050290;28;19913;-74
2021/11/25 04:03:05;;;;;;;;;;;-0.10;99.90;;;;;;5050274;28;19920;-74
2021/11/25 04:05:31;;;;;;;;;;;-0.10;99.90;;;;;;5050579;28;19908;-74
2021/11/25 04:07:57;;;;;;;;;;;0.00;99.90;;;;;;5050334;28;19909;-74
2021/11/25 04:10:22;;;;;;;;;;;-0.10;99.90;;;;;;5050575;28;19962;-74
2021/11/25 04:12:48;;;;;;;;;;;-0.10;99.90;;;;;;5050440;28;19919;-74
2021/11/25 04:15:14;;;;;;;;;;;-0.10;99.90;;;;;;5048987;28;19916;-74
2021/11/25 04:17:40;;;;;;;;;;;-0.20;99.90;;;;;;5050388;28;19909;-74
2021/11/25 04:20:07;;;;;;;;;;;-0.20;99.90;;;;;;5050416;28;19954;-73
2021/11/25 04:22:32;;;;;;;;;;;-0.30;99.90;;;;;;5050131;28;19913;-74
2021/11/25 04:24:58;;;;;;;;;;;-0.40;99.90;;;;;;5050190;28;19912;-74
2021/11/25 04:27:24;;;;;;;;;;;-0.30;99.90;;;;;;5053836;28;19917;-74
2021/11/25 04:38:16;;;;;;;;;;;-0.10;99.90;;;;;;5048957;28;20392;-74
2021/11/25 04:40:50;;;;;;;;;;;-0.10;99.90;;;;;;5053796;28;19909;-74
2021/11/25 04:43:16;;;;;;;;;;;-0.30;99.90;;;;;;5052105;28;19908;-74
2021/11/25 04:45:45;;;;;;;;;;;-0.30;99.90;;;;;;5053590;28;19916;-73
2021/11/25 04:48:10;;;;;;;;;;;-0.30;99.90;;;;;;5053588;28;19916;-73
2021/11/25 04:50:37;;;;;;;;;;;-0.30;99.90;;;;;;5053869;28;19908;-74
2021/11/25 04:53:03;;;;;;;;;;;-0.30;99.90;;;;;;5053175;28;19971;-74
2021/11/25 04:55:28;;;;;;;;;;;-0.30;99.90;;;;;;5053524;28;20308;-73
2021/11/25 04:57:54;;;;;;;;;;;-0.30;99.90;;;;;;5053139;28;19960;-74
2021/11/25 05:00:20;;;;;;;;;;;-0.30;99.90;;;;;;5053239;28;20011;-74
2021/11/25 05:02:45;;;;;;;;;;;-0.20;99.90;;;;;;5053566;28;19996;-74
2021/11/25 05:05:11;;;;;;;;;;;-0.10;99.90;;;;;;5051751;28;20365;-73
2021/11/25 05:07:37;;;;;;;;;;;-0.10;99.90;;;;;;5053554;28;19913;-73
2021/11/25 05:10:03;;;;;;;;;;;-0.10;99.90;;;;;;5053428;28;19954;-74
2021/11/25 05:12:28;;;;;;;;;;;0.00;99.90;;;;;;5053095;28;20307;-74
2021/11/25 05:14:54;;;;;;;;;;;-0.10;99.90;;;;;;5052884;28;20097;-74
2021/11/25 05:17:19;;;;;;;;;;;-0.20;99.90;;;;;;5053082;28;20364;-74
2021/11/25 05:19:45;;;;;;;;;;;-0.30;99.90;;;;;;5053197;28;19916;-73
2021/11/25 05:22:10;;;;;;;;;;;-0.30;99.90;;;;;;5053055;28;19916;-74
2021/11/25 05:24:36;;;;;;;;;;;-0.30;99.90;;;;;;5052522;28;19909;-74
2021/11/25 05:27:01;;;;;;;;;;;-0.30;99.90;;;;;;5052902;28;20440;-74
2021/11/25 05:29:27;;;;;;;;;;;-0.30;99.90;;;;;;5051935;28;20022;-73
2021/11/25 05:31:53;;;;;;;;;;;-0.30;99.90;;;;;;5053112;28;19908;-74
2021/11/25 05:34:18;;;;;;;;;;;-0.30;99.90;;;;;;5051416;28;19912;-75
2021/11/25 05:36:44;;;;;;;;;;;-0.20;99.90;;;;;;5052813;28;19951;-74
2021/11/25 05:39:10;;;;;;;;;;;-0.30;99.90;;;;;;5053230;28;19915;-75
2021/11/25 05:41:37;;;;;;;;;;;-0.20;99.90;;;;;;5052987;28;19908;-74
2021/11/25 05:44:03;;;;;;;;;;;-0.10;99.90;;;;;;5052900;28;20375;-75
2021/11/25 05:46:29;;;;;;;;;;;-0.10;99.90;;;;;;5052859;28;19916;-75
2021/11/25 05:48:54;;;;;;;;;;;-0.10;99.90;;;;;;5052419;28;19915;-74
2021/11/25 05:51:20;;;;;;;;;;;-0.20;99.90;;;;;;5052710;28;19915;-74
2021/11/25 05:53:45;;;;;;;;;;;-0.20;99.90;;;;;;5052323;28;19909;-74
2021/11/25 05:56:11;;;;;;;;;;;-0.20;99.90;;;;;;5052486;28;19909;-74
2021/11/25 05:58:36;;;;;;;;;;;-0.30;99.90;;;;;;5052215;28;19909;-74
2021/11/25 06:01:03;;;;;;;;;;;-0.40;99.90;;;;;;5052202;28;19909;-73
2021/11/25 06:03:28;;;;;;;;;;;-0.40;99.90;;;;;;5052104;28;19982;-74
2021/11/25 06:05:54;;;;;;;;;;;-0.40;99.90;;;;;;5052162;28;20369;-73
2021/11/25 06:08:19;;;;;;;;;;;-0.40;99.90;;;;;;5052387;28;19916;-74
2021/11/25 06:10:45;;;;;;;;;;;-0.40;99.90;;;;;;5052090;28;19999;-74
2021/11/25 06:13:10;;;;;;;;;;;-0.30;99.90;;;;;;5051869;28;19916;-74
2021/11/25 06:15:36;;;;;;;;;;;-0.30;99.90;;;;;;5052429;28;20408;-74
2021/11/25 06:18:01;;;;;;;;;;;-0.20;99.90;;;;;;5052398;28;19916;-74
2021/11/25 06:20:27;;;;;;;;;;;-0.20;99.90;;;;;;5052440;28;19955;-74
2021/11/25 06:22:53;;;;;;;;;;;-0.20;99.90;;;;;;5052241;28;19909;-73
2021/11/25 06:25:19;;;;;;;;;;;-0.30;99.90;;;;;;5051662;28;20431;-74
2021/11/25 06:27:45;;;;;;;;;;;-0.30;99.90;;;;;;5051922;28;19916;-74
2021/11/25 06:30:12;;;;;;;;;;;-0.20;99.90;;;;;;5051604;28;19908;-74
2021/11/25 06:32:42;;;;;;;;;;;-0.30;99.90;;;;;;5050481;28;20367;-74
2021/11/25 06:35:11;;;;;;;;;;;-0.30;99.90;;;;;;5051920;28;20312;-74
2021/11/25 06:37:37;;;;;;;;;;;-0.20;99.90;;;;;;5052033;28;19909;-72
2021/11/25 06:40:03;;;;;;;;;;;-0.20;99.90;;;;;;5051627;28;19913;-74
2021/11/25 06:42:29;;;;;;;;;;;-0.40;99.90;;;;;;5051977;28;19959;-74
2021/11/25 06:44:54;;;;;;;;;;;-0.40;99.90;;;;;;5051570;28;20277;-74
2021/11/25 06:47:19;;;;;;;;;;;-0.40;99.90;;;;;;5051624;28;19913;-74
2021/11/25 06:49:45;;;;;;;;;;;-0.40;99.90;;;;;;5050113;28;20463;-73
2021/11/25 06:52:10;;;;;;;;;;;-0.30;99.90;;;;;;5051514;28;19913;-74
2021/11/25 06:54:36;;;;;;;;;;;-0.30;99.90;;;;;;5044749;28;20313;-74
2021/11/25 06:57:01;;;;;;;;;;;-0.30;99.90;;;;;;5051206;28;20358;-74
2021/11/25 06:59:27;;;;;;;;;;;-0.20;99.90;;;;;;5050074;28;19948;-74
2021/11/25 07:01:52;;;;;;;;;;;-0.20;99.90;;;;;;5049898;28;19955;-75
2021/11/25 07:04:18;;;;;;;;;;;-0.20;99.90;;;;;;5051290;28;19947;-75
2021/11/25 07:06:46;;;;;;;;;;;-0.20;99.90;;;;;;5051705;28;19912;-74
2021/11/25 07:09:12;;;;;;;;;;;-0.20;99.90;;;;;;5040624;28;20339;-74
2021/11/25 07:11:37;;;;;;;;;;;-0.20;99.90;;;;;;5036457;28;19956;-74
2021/11/25 07:14:04;;;;;;;;;;;-0.20;99.90;;;;;;5035469;28;19909;-75
2021/11/25 07:16:29;;;;;;;;;;;-0.20;99.90;;;;;;5035067;28;19917;-74
2021/11/25 07:18:55;;;;;;;;;;;-0.30;99.90;;;;;;5035099;28;19909;-75
2021/11/25 07:21:20;;;;;;;;;;;-0.30;99.90;;;;;;5037737;28;20008;-73
2021/11/25 07:23:46;;;;;;;;;;;-0.40;99.90;;;;;;5033818;28;19963;-73
2021/11/25 07:26:12;;;;;;;;;;;-0.40;99.90;;;;;;5033896;28;19916;-74
2021/11/25 07:28:37;;;;;;;;;;;-0.30;99.90;;;;;;5040519;28;20035;-75
2021/11/25 07:31:04;;;;;;;;;;;-0.30;99.90;;;;;;5040095;28;19909;-75
2021/11/25 07:33:29;;;;;;;;;;;-0.20;99.90;;;;;;5032748;28;19924;-75
2021/11/25 07:35:55;;;;;;;;;;;-0.10;99.90;;;;;;5035594;28;19909;-75
2021/11/25 07:38:20;;;;;;;;;;;-0.10;99.90;;;;;;5034854;28;20284;-74
2021/11/25 07:40:48;;;;;;;;;;;-0.10;99.90;;;;;;5034854;28;19909;-75
2021/11/25 07:43:17;;;;;;;;;;;-0.10;99.90;;;;;;5032931;28;19910;-75
2021/11/25 07:45:43;;;;;;;;;;;-0.10;99.90;;;;;;5034005;28;19916;-75
2021/11/25 07:48:08;;;;;;;;;;;-0.10;99.90;;;;;;5036964;28;20001;-74
2021/11/25 07:50:34;;;;;;;;;;;-0.10;99.90;;;;;;5045876;28;19909;-75
2021/11/25 07:53:00;;;;;;;;;;;0.00;99.90;;;;;;5050171;28;19913;-75
2021/11/25 07:55:26;;;;;;;;;;;-0.10;99.90;;;;;;5048463;28;19951;-75
2021/11/25 07:57:52;;;;;;;;;;;-0.10;99.90;;;;;;5046322;28;19916;-74
2021/11/25 08:00:21;;;;;;;;;;;-0.20;99.90;;;;;;5051448;28;19909;-75
2021/11/25 08:02:47;;;;;;;;;;;-0.20;99.90;;;;;;5054829;28;19940;-73
2021/11/25 08:05:12;;;;;;;;;;;-0.20;99.90;;;;;;5055345;28;20415;-75
2021/11/25 08:07:40;;;;;;;;;;;-0.20;99.90;;;;;;5053319;28;19971;-75
2021/11/25 08:10:06;;;;;;;;;;;-0.10;99.90;;;;;;5053111;28;20330;-74
2021/11/25 08:12:32;;;;;;;;;;;-0.10;99.90;;;;;;5054799;28;20000;-75
2021/11/25 08:14:57;;;;;;;;;;;-0.10;99.90;;;;;;5054018;28;19982;-74
2021/11/25 08:17:23;;;;;;;;;;;-0.30;99.90;;;;;;5052629;28;19940;-75
2021/11/25 08:19:48;;;;;;;;;;;-0.20;99.90;;;;;;5048487;28;19917;-75
2021/11/25 08:22:15;;;;;;;;;;;0.00;99.90;;;;;;5047750;28;19928;-75
2021/11/25 08:24:41;;;;;;;;;;;0.10;99.90;;;;;;5053820;28;19908;-75
2021/11/25 08:27:07;;;;;;;;;;;-0.10;99.90;;;;;;5047816;28;19921;-75
2021/11/25 08:29:32;;;;;;;;;;;-0.10;99.90;;;;;;5053846;28;19909;-75
2021/11/25 08:31:58;;;;;;;;;;;0.00;99.90;;;;;;5054070;28;20335;-73
2021/11/25 08:34:26;;;;;;;;;;;0.10;99.90;;;;;;5052373;28;20361;-75
2021/11/25 08:36:51;;;;;;;;;;;0.20;99.90;;;;;;5054081;28;19917;-75
2021/11/25 08:39:17;;;;;;;;;;;0.20;99.90;;;;;;5054008;28;19916;-75
2021/11/25 08:41:43;;;;;;;;;;;0.20;99.90;;;;;;5051965;28;19913;-75
2021/11/25 08:44:08;;;;;;;;;;;0.20;99.90;;;;;;5046366;28;19917;-74
2021/11/25 08:46:34;;;;;;;;;;;0.30;99.90;;;;;;5049624;28;19960;-75
2021/11/25 08:49:00;;;;;;;;;;;0.20;99.90;;;;;;5051096;28;19909;-75
2021/11/25 08:51:25;;;;;;;;;;;0.30;99.90;;;;;;5051563;28;19909;-75
2021/11/25 08:53:51;;;;;;;;;;;0.10;99.90;;;;;;5048427;28;20289;-75
2021/11/25 08:56:16;;;;;;;;;;;0.10;99.90;;;;;;5044931;28;19909;-74
2021/11/25 08:58:42;;;;;;;;;;;0.20;99.90;;;;;;5045713;28;20281;-75
2021/11/25 09:01:07;;;;;;;;;;;0.30;99.90;;;;;;5049279;28;19913;-75
2021/11/25 09:03:33;;;;;;;;;;;0.30;99.90;;;;;;5047352;28;20281;-75
2021/11/25 09:05:58;;;;;;;;;;;0.30;99.90;;;;;;5049291;28;19959;-73
2021/11/25 09:08:24;;;;;;;;;;;0.40;99.90;;;;;;5049276;28;19924;-75
2021/11/25 09:10:50;;;;;;;;;;;0.40;99.90;;;;;;5038831;28;20007;-74
2021/11/25 09:13:15;;;;;;;;;;;0.40;99.90;;;;;;5047588;28;20010;-75
2021/11/25 09:15:42;;;;;;;;;;;0.40;99.90;;;;;;5050889;28;19916;-75
2021/11/25 09:18:08;;;;;;;;;;;0.40;99.90;;;;;;5050737;28;20139;-75
2021/11/25 09:20:34;;;;;;;;;;;0.40;99.90;;;;;;5039996;28;19995;-75
2021/11/25 09:23:01;;;;;;;;;;;0.50;99.90;;;;;;5049161;28;19978;-75
2021/11/25 09:25:27;;;;;;;;;;;0.50;99.90;;;;;;5043523;28;19943;-75
2021/11/25 09:27:53;;;;;;;;;;;0.40;99.90;;;;;;5050698;28;20004;-74
2021/11/25 09:30:19;;;;;;;;;;;0.40;99.90;;;;;;5040879;28;19917;-75
2021/11/25 09:32:45;;;;;;;;;;;0.30;99.90;;;;;;5044911;28;20331;-75
2021/11/25 09:35:11;;;;;;;;;;;0.30;99.90;;;;;;5042403;28;19924;-74
2021/11/25 09:37:36;;;;;;;;;;;0.30;99.90;;;;;;5044427;28;20456;-75
2021/11/25 09:40:02;;;;;;;;;;;0.40;99.90;;;;;;5051526;28;19919;-75
2021/11/25 09:42:28;;;;;;;;;;;0.40;99.90;;;;;;5048540;28;19959;-75
2021/11/25 09:44:53;;;;;;;;;;;0.50;99.90;;;;;;5050615;28;19909;-74
2021/11/25 09:47:19;;;;;;;;;;;0.40;99.90;;;;;;5052786;28;19921;-75
2021/11/25 09:49:45;;;;;;;;;;;0.40;99.90;;;;;;5051135;28;19916;-75
2021/11/25 09:52:11;;;;;;;;;;;0.50;99.90;;;;;;5045175;28;19909;-75
2021/11/25 09:54:37;;;;;;;;;;;0.60;99.90;;;;;;5049961;28;19999;-75
2021/11/25 09:57:02;;;;;;;;;;;0.70;99.90;;;;;;5051685;28;19909;-75
2021/11/25 09:59:28;;;;;;;;;;;0.60;99.90;;;;;;5051026;28;19920;-74
2021/11/25 10:01:54;;;;;;;;;;;0.30;99.90;;;;;;5047480;28;19920;-75
2021/11/25 10:04:20;;;;;;;;;;;0.30;99.90;;;;;;5045416;28;19959;-75
2021/11/25 10:06:50;;;;;;;;;;;0.40;99.90;;;;;;5049339;28;19963;-76
2021/11/25 10:09:15;;;;;;;;;;;0.50;99.90;;;;;;5050342;28;19909;-75
2021/11/25 10:11:41;;;;;;;;;;;0.50;99.90;;;;;;5052527;28;20434;-75
2021/11/25 10:14:08;;;;;;;;;;;0.60;99.90;;;;;;5047915;28;19996;-75
2021/11/25 10:16:41;;;;;;;;;;;0.50;99.90;;;;;;5046607;28;20438;-75
2021/11/25 10:19:13;;;;;;;;;;;0.40;99.90;;;;;;5051846;28;19998;-75
2021/11/25 10:21:40;;;;;;;;;;;0.30;99.90;;;;;;5049276;28;19952;-76
2021/11/25 10:24:05;;;;;;;;;;;0.20;99.90;;;;;;5049670;28;19930;-76
2021/11/25 10:26:32;;;;;;;;;;;0.30;99.90;;;;;;5044918;28;19966;-75
2021/11/25 10:29:06;;;;;;;;;;;0.30;99.90;;;;;;5047486;28;19959;-78
2021/11/25 10:31:33;;;;;;;;;;;0.30;99.90;;;;;;5048593;28;20027;-75
2021/11/25 10:34:09;;;;;;;;;;;0.50;99.90;;;;;;5039971;28;19917;-76
2021/11/25 10:39:09;;;;;;;;;;;0.60;99.90;;;;;;5050437;28;19912;-76
2021/11/25 10:41:36;;;;;;;;;;;0.70;99.90;;;;;;5050398;28;19962;-75
2021/11/25 10:44:07;;;;;;;;;;;0.60;99.90;;;;;;5049873;28;19939;-76
2021/11/25 10:46:41;;;;;;;;;;;0.70;99.90;;;;;;5046555;28;19913;-74
2021/11/25 10:49:08;;;;;;;;;;;0.60;99.90;;;;;;5050506;28;20008;-74
2021/11/25 10:51:35;;;;;;;;;;;0.50;99.90;;;;;;5051051;28;19939;-75
2021/11/25 10:54:00;;;;;;;;;;;0.40;99.90;;;;;;5049578;28;19991;-76
2021/11/25 10:56:35;;;;;;;;;;;0.60;99.90;;;;;;5041012;28;20004;-76
2021/11/25 10:59:00;;;;;;;;;;;0.60;99.90;;;;;;5049213;28;19909;-75
2021/11/25 11:01:36;;;;;;;;;;;0.50;99.90;;;;;;5049130;28;19941;-75
2021/11/25 11:04:02;;;;;;;;;;;0.60;99.90;;;;;;5048728;28;20373;-75
2021/11/25 11:06:31;;;;;;;;;;;0.70;99.90;;;;;;5049261;28;19913;-74
2021/11/25 11:08:57;;;;;;;;;;;0.70;99.90;;;;;;5048861;28;19917;-76
2021/11/25 11:11:23;;;;;;;;;;;0.70;99.90;;;;;;5051368;28;19932;-75
2021/11/25 11:14:14;;;;;;;;;;;0.90;99.90;;;;;;5037296;28;20009;-75
2021/11/25 11:16:47;;;;;;;;;;;0.80;99.90;;;;;;5063029;28;20003;-75
2021/11/25 11:19:14;;;;;;;;;;;1.00;99.90;;;;;;5038738;28;19914;-75
2021/11/25 11:21:43;;;;;;;;;;;1.20;99.90;;;;;;5036452;28;19909;-75
2021/11/25 11:24:13;;;;;;;;;;;1.30;99.90;;;;;;5040112;28;20015;-75
2021/11/25 11:26:46;;;;;;;;;;;1.40;99.90;;;;;;5050313;28;20055;-75
2021/11/25 11:29:13;;;;;;;;;;;1.30;99.90;;;;;;5049778;28;19919;-74
2021/11/25 11:31:39;;;;;;;;;;;1.00;99.90;;;;;;5051180;28;19934;-75
2021/11/25 11:34:06;;;;;;;;;;;1.00;99.90;;;;;;5049819;28;19999;-76
2021/11/25 11:36:32;;;;;;;;;;;1.40;99.90;;;;;;5054188;28;20005;-76
2021/11/25 11:38:59;;;;;;;;;;;1.30;99.90;;;;;;5053902;28;19940;-73
2021/11/25 11:41:31;;;;;;;;;;;1.50;99.90;;;;;;5055394;28;19992;-73
2021/11/25 11:43:57;;;;;;;;;;;1.40;99.90;;;;;;5054880;28;19919;-75
2021/11/25 11:46:24;;;;;;;;;;;1.30;99.90;;;;;;5055597;28;20008;-73
2021/11/25 11:48:51;;;;;;;;;;;1.40;99.90;;;;;;5055315;28;19970;-74
2021/11/25 11:51:18;;;;;;;;;;;1.20;99.90;;;;;;5054595;28;19915;-75
2021/11/25 11:53:44;;;;;;;;;;;1.40;99.90;;;;;;5051286;28;19994;-75
2021/11/25 11:56:12;;;;;;;;;;;1.20;99.90;;;;;;5045304;28;19958;-75
2021/11/25 11:58:53;;;;;;;;;;;1.40;99.90;;;;;;5054774;28;19909;-75
2021/11/25 12:01:21;;;;;;;;;;;1.40;99.90;;;;;;5055171;28;19912;-75
2021/11/25 12:03:49;;;;;;;;;;;1.40;99.90;;;;;;5054713;28;20369;-76
2021/11/25 12:06:30;;;;;;;;;;;1.40;99.90;;;;;;5054356;28;19983;-73
2021/11/25 12:08:56;;;;;;;;;;;1.30;99.90;;;;;;5052899;28;19917;-76
2021/11/25 12:11:21;;;;;;;;;;;1.40;99.90;;;;;;5054625;28;19928;-75
2021/11/25 12:13:59;;;;;;;;;;;1.50;99.90;;;;;;5052599;28;19999;-76
2021/11/25 12:16:27;;;;;;;;;;;1.30;99.90;;;;;;5055019;28;20008;-75
2021/11/25 12:18:52;;;;;;;;;;;1.30;99.90;;;;;;5054782;28;19909;-76
2021/11/25 12:21:38;;;;;;;;;;;1.40;99.90;;;;;;5055101;28;19913;-76
2021/11/25 12:24:13;;;;;;;;;;;1.50;99.90;;;;;;5049708;28;19920;-76
2021/11/25 12:27:11;;;;;;;;;;;1.50;99.90;;;;;;5054689;28;19983;-76
2021/11/25 12:29:39;;;;;;;;;;;1.60;99.90;;;;;;5046137;28;20342;-76
2021/11/25 12:32:28;;;;;;;;;;;1.60;99.90;;;;;;5052990;28;19909;-76
2021/11/25 12:34:58;;;;;;;;;;;1.60;99.90;;;;;;5054451;28;19909;-75
2021/11/25 12:37:50;;;;;;;;;;;1.70;99.90;;;;;;5053751;28;19919;-74
2021/11/25 12:40:21;;;;;;;;;;;1.70;99.90;;;;;;5054840;28;19913;-76
2021/11/25 12:42:54;;;;;;;;;;;1.70;99.90;;;;;;5053693;28;19952;-77
2021/11/25 12:45:21;;;;;;;;;;;1.60;99.90;;;;;;5054432;28;19913;-74
2021/11/25 12:47:47;;;;;;;;;;;1.70;99.90;;;;;;5053635;28;19919;-76
2021/11/25 12:50:17;;;;;;;;;;;1.70;99.90;;;;;;5054455;28;20355;-75
2021/11/25 12:52:42;;;;;;;;;;;1.60;99.90;;;;;;5051347;28;20493;-76
2021/11/25 12:55:09;;;;;;;;;;;1.80;99.90;;;;;;5046535;28;19952;-74
2021/11/25 12:57:51;;;;;;;;;;;1.70;99.90;;;;;;5054910;28;19908;-77
2021/11/25 13:00:17;;;;;;;;;;;1.60;99.90;;;;;;5054046;28;20361;-76
2021/11/25 13:02:43;;;;;;;;;;;1.60;99.90;;;;;;5042700;28;19909;-77
2021/11/25 13:05:09;;;;;;;;;;;1.60;99.90;;;;;;5053417;28;19919;-74
2021/11/25 13:07:44;;;;;;;;;;;1.50;99.90;;;;;;5053812;28;20385;-77
2021/11/25 13:10:26;;;;;;;;;;;1.60;99.90;;;;;;5047535;28;19971;-77
2021/11/25 13:13:05;;;;;;;;;;;1.50;99.90;;;;;;5047705;28;19952;-77
2021/11/25 13:15:31;;;;;;;;;;;1.50;99.90;;;;;;5051947;28;20300;-77
2021/11/25 13:17:57;;;;;;;;;;;1.60;99.90;;;;;;5053293;28;19909;-77
2021/11/25 13:20:41;;;;;;;;;;;1.60;99.90;;;;;;5053365;28;19908;-77
2021/11/25 13:23:07;;;;;;;;;;;1.50;99.90;;;;;;5051255;28;19909;-75
2021/11/25 13:25:32;;;;;;;;;;;1.60;99.90;;;;;;5047313;28;19999;-77
2021/11/25 13:27:58;;;;;;;;;;;1.50;99.90;;;;;;5053358;28;20015;-77
2021/11/25 13:30:23;;;;;;;;;;;1.50;99.90;;;;;;5053053;28;19990;-77
2021/11/25 13:32:51;;;;;;;;;;;1.60;99.90;;;;;;5052470;28;20353;-75
2021/11/25 13:35:18;;;;;;;;;;;1.60;99.90;;;;;;5053038;28;19913;-77
2021/11/25 13:37:47;;;;;;;;;;;1.60;99.90;;;;;;5053250;28;20343;-77
2021/11/25 13:40:15;;;;;;;;;;;1.60;99.90;;;;;;5053243;28;19920;-77
2021/11/25 13:42:42;;;;;;;;;;;1.70;99.90;;;;;;5056443;28;19915;-77
2021/11/25 13:45:08;;;;;;;;;;;1.70;99.90;;;;;;5056266;28;19913;-75
2021/11/25 13:47:35;;;;;;;;;;;1.70;99.90;;;;;;5053357;28;20051;-77
2021/11/25 13:50:05;;;;;;;;;;;1.60;99.90;;;;;;5057483;28;19912;-77
2021/11/25 13:52:35;;;;;;;;;;;1.70;99.90;;;;;;5048495;28;19915;-77
2021/11/25 13:55:01;;;;;;;;;;;1.60;99.90;;;;;;5049401;28;19909;-77
2021/11/25 13:57:27;;;;;;;;;;;1.60;99.90;;;;;;5053932;28;19909;-77
2021/11/25 13:59:53;;;;;;;;;;;1.50;99.90;;;;;;5042681;28;19938;-77
2021/11/25 14:02:26;;;;;;;;;;;1.50;99.90;;;;;;5038389;28;19912;-77
2021/11/25 14:04:59;;;;;;;;;;;1.50;99.90;;;;;;5051702;28;20015;-77
2021/11/25 14:07:25;;;;;;;;;;;1.50;99.90;;;;;;5053010;28;19955;-77
2021/11/25 14:10:03;;;;;;;;;;;1.50;99.90;;;;;;5050850;28;19909;-76
2021/11/25 14:12:29;;;;;;;;;;;1.50;99.90;;;;;;5052012;28;20323;-81
2021/11/25 14:14:56;;;;;;;;;;;1.50;99.90;;;;;;5053185;28;20007;-77
2021/11/25 14:17:25;;;;;;;;;;;1.50;99.90;;;;;;5049027;28;19999;-77
2021/11/25 14:19:52;;;;;;;;;;;1.40;99.90;;;;;;5052878;28;19909;-77
2021/11/25 14:22:28;;;;;;;;;;;1.50;99.90;;;;;;5053334;28;19909;-75
2021/11/25 14:24:57;;;;;;;;;;;1.50;99.90;;;;;;5052595;28;20385;-76
2021/11/25 14:30:21;;;;;;;;;;;1.40;99.90;;;;;;5053183;28;19915;-76
2021/11/25 14:32:47;;;;;;;;;;;1.40;99.90;;;;;;5049867;28;19919;-77
2021/11/25 14:35:34;;;;;;;;;;;1.40;99.90;;;;;;5052056;28;19912;-77
2021/11/25 14:38:04;;;;;;;;;;;1.40;99.90;;;;;;5051316;28;19920;-77
2021/11/25 14:40:30;;;;;;;;;;;1.30;99.90;;;;;;5052611;28;19909;-77
2021/11/25 14:43:13;;;;;;;;;;;1.30;99.90;;;;;;5052166;28;19912;-77
2021/11/25 14:45:40;;;;;;;;;;;1.30;99.90;;;;;;5052284;28;19913;-75